sensor_id;sensor_type;location;lat;lon;timestamp;temperature;humidity
65419;DHT22;52027;50.658;14.004;2022-08-19T00:00:15;30.06;42.41
65419;DHT22;52027;50.658;14.004;2022-08-19T00:02:42;30.06;42.38
65419;DHT22;52027;50.658;14.004;2022-08-19T00:05:10;30.05;42.42
65419;DHT22;52027;50.658;14.004;2022-08-19T00:07:36;30.05;42.25
65419;DHT22;52027;50.658;14.004;2022-08-19T00:10:06;30.08;42.23
65419;DHT22;52027;50.658;14.004;2022-08-19T00:12:32;30.05;42.30
65419;DHT22;52027;50.658;14.004;2022-08-19T00:14:57;30.05;42.29
65419;DHT22;52027;50.658;14.004;2022-08-19T00:17:22;30.04;42.28
65419;DHT22;52027;50.658;14.004;2022-08-19T00:19:48;30.02;42.44
65419;DHT22;52027;50.658;14.004;2022-08-19T00:22:13;30.04;42.48
65419;DHT22;52027;50.658;14.004;2022-08-19T00:24:39;30.04;42.45
65419;DHT22;52027;50.658;14.004;2022-08-19T00:27:06;30.04;42.50
65419;DHT22;52027;50.658;14.004;2022-08-19T00:29:31;30.02;42.54
65419;DHT22;52027;50.658;14.004;2022-08-19T00:31:57;30.04;42.67
65419;DHT22;52027;50.658;14.004;2022-08-19T00:34:25;30.02;42.75
65419;DHT22;52027;50.658;14.004;2022-08-19T00:36:54;29.98;42.98
65419;DHT22;52027;50.658;14.004;2022-08-19T00:39:20;29.98;43.01
65419;DHT22;52027;50.658;14.004;2022-08-19T00:41:47;29.98;43.07
65419;DHT22;52027;50.658;14.004;2022-08-19T00:44:17;29.96;43.12
65419;DHT22;52027;50.658;14.004;2022-08-19T00:46:46;29.95;43.17
65419;DHT22;52027;50.658;14.004;2022-08-19T00:49:16;29.95;43.29
65419;DHT22;52027;50.658;14.004;2022-08-19T00:51:47;29.95;43.26
65419;DHT22;52027;50.658;14.004;2022-08-19T00:54:13;29.93;43.49
65419;DHT22;52027;50.658;14.004;2022-08-19T00:56:39;29.95;43.41
65419;DHT22;52027;50.658;14.004;2022-08-19T00:59:05;29.93;43.47
65419;DHT22;52027;50.658;14.004;2022-08-19T01:01:39;29.93;43.49
65419;DHT22;52027;50.658;14.004;2022-08-19T01:04:06;29.93;43.48
65419;DHT22;52027;50.658;14.004;2022-08-19T01:06:32;29.96;43.57
65419;DHT22;52027;50.658;14.004;2022-08-19T01:08:59;29.93;43.68
65419;DHT22;52027;50.658;14.004;2022-08-19T01:11:26;29.92;43.49
65419;DHT22;52027;50.658;14.004;2022-08-19T01:13:53;29.95;43.28
65419;DHT22;52027;50.658;14.004;2022-08-19T01:16:21;29.95;43.25
65419;DHT22;52027;50.658;14.004;2022-08-19T01:18:48;29.92;43.16
65419;DHT22;52027;50.658;14.004;2022-08-19T01:21:32;29.93;43.19
65419;DHT22;52027;50.658;14.004;2022-08-19T01:23:58;29.96;43.14
65419;DHT22;52027;50.658;14.004;2022-08-19T01:26:25;29.95;43.11
65419;DHT22;52027;50.658;14.004;2022-08-19T01:28:54;29.95;43.08
65419;DHT22;52027;50.658;14.004;2022-08-19T01:31:23;29.93;43.09
65419;DHT22;52027;50.658;14.004;2022-08-19T01:33:51;29.95;43.11
65419;DHT22;52027;50.658;14.004;2022-08-19T01:36:24;29.93;43.07
65419;DHT22;52027;50.658;14.004;2022-08-19T01:38:51;29.93;43.16
65419;DHT22;52027;50.658;14.004;2022-08-19T01:41:17;29.93;43.17
65419;DHT22;52027;50.658;14.004;2022-08-19T01:43:43;29.92;43.11
65419;DHT22;52027;50.658;14.004;2022-08-19T01:46:09;29.93;43.26
65419;DHT22;52027;50.658;14.004;2022-08-19T01:48:40;29.93;43.22
65419;DHT22;52027;50.658;14.004;2022-08-19T01:51:06;29.93;43.11
65419;DHT22;52027;50.658;14.004;2022-08-19T01:53:33;29.90;43.29
65419;DHT22;52027;50.658;14.004;2022-08-19T01:55:59;29.90;43.27
65419;DHT22;52027;50.658;14.004;2022-08-19T01:58:30;29.90;43.18
65419;DHT22;52027;50.658;14.004;2022-08-19T02:00:58;29.90;43.22
65419;DHT22;52027;50.658;14.004;2022-08-19T02:03:23;29.90;43.24
65419;DHT22;52027;50.658;14.004;2022-08-19T02:05:55;29.89;43.20
65419;DHT22;52027;50.658;14.004;2022-08-19T02:08:21;29.90;43.20
65419;DHT22;52027;50.658;14.004;2022-08-19T02:10:46;29.88;43.16
65419;DHT22;52027;50.658;14.004;2022-08-19T02:13:12;29.89;43.20
65419;DHT22;52027;50.658;14.004;2022-08-19T02:15:38;29.90;43.26
65419;DHT22;52027;50.658;14.004;2022-08-19T02:18:04;29.90;43.49
65419;DHT22;52027;50.658;14.004;2022-08-19T02:20:30;29.90;43.39
65419;DHT22;52027;50.658;14.004;2022-08-19T02:22:55;29.89;43.39
65419;DHT22;52027;50.658;14.004;2022-08-19T02:25:21;29.88;43.46
65419;DHT22;52027;50.658;14.004;2022-08-19T02:27:46;29.90;43.39
65419;DHT22;52027;50.658;14.004;2022-08-19T02:30:14;29.89;43.35
65419;DHT22;52027;50.658;14.004;2022-08-19T02:32:41;29.88;43.33
65419;DHT22;52027;50.658;14.004;2022-08-19T02:35:07;29.86;43.31
65419;DHT22;52027;50.658;14.004;2022-08-19T02:37:33;29.86;43.36
65419;DHT22;52027;50.658;14.004;2022-08-19T02:40:17;29.88;43.42
65419;DHT22;52027;50.658;14.004;2022-08-19T02:42:43;29.86;43.42
65419;DHT22;52027;50.658;14.004;2022-08-19T02:45:10;29.86;43.38
65419;DHT22;52027;50.658;14.004;2022-08-19T02:47:35;29.86;43.47
65419;DHT22;52027;50.658;14.004;2022-08-19T02:50:01;29.86;43.43
65419;DHT22;52027;50.658;14.004;2022-08-19T02:52:27;29.86;43.47
65419;DHT22;52027;50.658;14.004;2022-08-19T02:54:53;29.85;43.50
65419;DHT22;52027;50.658;14.004;2022-08-19T02:57:18;29.86;43.49
65419;DHT22;52027;50.658;14.004;2022-08-19T02:59:44;29.84;43.64
65419;DHT22;52027;50.658;14.004;2022-08-19T03:02:09;29.85;43.64
65419;DHT22;52027;50.658;14.004;2022-08-19T03:04:34;29.84;43.69
65419;DHT22;52027;50.658;14.004;2022-08-19T03:07:00;29.86;43.74
65419;DHT22;52027;50.658;14.004;2022-08-19T03:09:25;29.82;43.80
65419;DHT22;52027;50.658;14.004;2022-08-19T03:11:53;29.85;43.77
65419;DHT22;52027;50.658;14.004;2022-08-19T03:14:18;29.84;43.81
65419;DHT22;52027;50.658;14.004;2022-08-19T03:16:51;29.82;43.79
65419;DHT22;52027;50.658;14.004;2022-08-19T03:19:18;29.82;43.78
65419;DHT22;52027;50.658;14.004;2022-08-19T03:21:45;29.79;43.85
65419;DHT22;52027;50.658;14.004;2022-08-19T03:24:12;29.82;43.90
65419;DHT22;52027;50.658;14.004;2022-08-19T03:26:40;29.82;43.90
65419;DHT22;52027;50.658;14.004;2022-08-19T03:29:06;29.81;43.88
65419;DHT22;52027;50.658;14.004;2022-08-19T03:31:36;29.81;43.85
65419;DHT22;52027;50.658;14.004;2022-08-19T03:34:02;29.84;43.94
65419;DHT22;52027;50.658;14.004;2022-08-19T03:36:27;29.81;44.06
65419;DHT22;52027;50.658;14.004;2022-08-19T03:38:55;29.81;43.97
65419;DHT22;52027;50.658;14.004;2022-08-19T03:41:29;29.81;43.89
65419;DHT22;52027;50.658;14.004;2022-08-19T03:43:56;29.78;43.86
65419;DHT22;52027;50.658;14.004;2022-08-19T03:46:26;29.81;43.85
65419;DHT22;52027;50.658;14.004;2022-08-19T03:48:53;29.79;43.80
65419;DHT22;52027;50.658;14.004;2022-08-19T03:51:34;29.81;43.78
65419;DHT22;52027;50.658;14.004;2022-08-19T03:54:01;29.79;43.99
65419;DHT22;52027;50.658;14.004;2022-08-19T03:56:28;29.79;43.85
65419;DHT22;52027;50.658;14.004;2022-08-19T03:58:58;29.81;43.93
65419;DHT22;52027;50.658;14.004;2022-08-19T04:01:28;29.79;44.10
65419;DHT22;52027;50.658;14.004;2022-08-19T04:03:55;29.81;44.32
65419;DHT22;52027;50.658;14.004;2022-08-19T04:06:23;29.77;44.37
65419;DHT22;52027;50.658;14.004;2022-08-19T04:08:51;29.81;44.80
65419;DHT22;52027;50.658;14.004;2022-08-19T04:11:18;29.78;44.69
65419;DHT22;52027;50.658;14.004;2022-08-19T04:13:46;29.74;45.00
65419;DHT22;52027;50.658;14.004;2022-08-19T04:16:12;29.71;45.08
65419;DHT22;52027;50.658;14.004;2022-08-19T04:18:38;29.67;45.27
65419;DHT22;52027;50.658;14.004;2022-08-19T04:21:05;29.69;45.37
65419;DHT22;52027;50.658;14.004;2022-08-19T04:23:31;29.69;45.47
65419;DHT22;52027;50.658;14.004;2022-08-19T04:25:57;29.65;45.58
65419;DHT22;52027;50.658;14.004;2022-08-19T04:28:23;29.65;45.70
65419;DHT22;52027;50.658;14.004;2022-08-19T04:30:52;29.62;46.24
65419;DHT22;52027;50.658;14.004;2022-08-19T04:33:20;29.61;46.50
65419;DHT22;52027;50.658;14.004;2022-08-19T04:35:48;29.61;46.18
65419;DHT22;52027;50.658;14.004;2022-08-19T04:38:15;29.58;46.23
65419;DHT22;52027;50.658;14.004;2022-08-19T04:40:45;29.57;46.35
65419;DHT22;52027;50.658;14.004;2022-08-19T04:43:30;29.54;46.74
65419;DHT22;52027;50.658;14.004;2022-08-19T04:45:56;29.50;47.11
65419;DHT22;52027;50.658;14.004;2022-08-19T04:48:22;29.47;47.28
65419;DHT22;52027;50.658;14.004;2022-08-19T04:50:56;29.40;47.25
65419;DHT22;52027;50.658;14.004;2022-08-19T04:53:31;29.34;47.95
65419;DHT22;52027;50.658;14.004;2022-08-19T04:55:58;29.30;48.22
65419;DHT22;52027;50.658;14.004;2022-08-19T04:58:26;29.26;48.18
65419;DHT22;52027;50.658;14.004;2022-08-19T05:00:52;29.24;48.09
65419;DHT22;52027;50.658;14.004;2022-08-19T05:03:18;29.23;48.60
65419;DHT22;52027;50.658;14.004;2022-08-19T05:05:45;29.20;48.46
65419;DHT22;52027;50.658;14.004;2022-08-19T05:08:12;29.14;48.93
65419;DHT22;52027;50.658;14.004;2022-08-19T05:10:38;29.00;49.47
65419;DHT22;52027;50.658;14.004;2022-08-19T05:13:04;28.86;49.83
65419;DHT22;52027;50.658;14.004;2022-08-19T05:15:30;28.76;50.22
65419;DHT22;52027;50.658;14.004;2022-08-19T05:17:56;28.64;50.45
65419;DHT22;52027;50.658;14.004;2022-08-19T05:20:40;28.47;51.19
65419;DHT22;52027;50.658;14.004;2022-08-19T05:23:24;28.34;51.35
65419;DHT22;52027;50.658;14.004;2022-08-19T05:25:50;28.33;51.36
65419;DHT22;52027;50.658;14.004;2022-08-19T05:28:17;28.34;51.35
65419;DHT22;52027;50.658;14.004;2022-08-19T05:30:42;28.31;51.55
65419;DHT22;52027;50.658;14.004;2022-08-19T05:33:10;28.34;51.53
65419;DHT22;52027;50.658;14.004;2022-08-19T05:35:38;28.36;51.63
65419;DHT22;52027;50.658;14.004;2022-08-19T05:38:04;28.38;51.59
65419;DHT22;52027;50.658;14.004;2022-08-19T05:40:29;28.37;51.67
65419;DHT22;52027;50.658;14.004;2022-08-19T05:42:55;28.37;52.00
65419;DHT22;52027;50.658;14.004;2022-08-19T05:45:21;28.33;52.04
65419;DHT22;52027;50.658;14.004;2022-08-19T05:47:47;28.25;52.32
65419;DHT22;52027;50.658;14.004;2022-08-19T05:50:12;28.16;52.41
65419;DHT22;52027;50.658;14.004;2022-08-19T05:52:38;28.10;52.74
65419;DHT22;52027;50.658;14.004;2022-08-19T05:55:04;28.07;52.39
65419;DHT22;52027;50.658;14.004;2022-08-19T05:57:30;28.06;52.39
65419;DHT22;52027;50.658;14.004;2022-08-19T05:59:56;28.04;52.47
65419;DHT22;52027;50.658;14.004;2022-08-19T06:02:22;27.96;52.57
65419;DHT22;52027;50.658;14.004;2022-08-19T06:04:48;27.96;52.75
65419;DHT22;52027;50.658;14.004;2022-08-19T06:07:14;27.92;52.93
65419;DHT22;52027;50.658;14.004;2022-08-19T06:09:40;27.89;52.90
65419;DHT22;52027;50.658;14.004;2022-08-19T06:12:06;27.85;52.99
65419;DHT22;52027;50.658;14.004;2022-08-19T06:14:34;27.85;53.13
65419;DHT22;52027;50.658;14.004;2022-08-19T06:17:00;27.79;53.16
65419;DHT22;52027;50.658;14.004;2022-08-19T06:19:27;27.74;53.38
65419;DHT22;52027;50.658;14.004;2022-08-19T06:21:55;27.70;53.29
65419;DHT22;52027;50.658;14.004;2022-08-19T06:24:23;27.67;53.46
65419;DHT22;52027;50.658;14.004;2022-08-19T06:26:51;27.67;53.40
65419;DHT22;52027;50.658;14.004;2022-08-19T06:29:18;27.67;53.55
65419;DHT22;52027;50.658;14.004;2022-08-19T06:31:50;27.69;53.59
65419;DHT22;52027;50.658;14.004;2022-08-19T06:34:16;27.69;53.60
65419;DHT22;52027;50.658;14.004;2022-08-19T06:36:45;27.72;53.63
65419;DHT22;52027;50.658;14.004;2022-08-19T06:39:15;27.76;53.51
65419;DHT22;52027;50.658;14.004;2022-08-19T06:41:44;27.79;53.55
65419;DHT22;52027;50.658;14.004;2022-08-19T06:44:10;27.78;53.44
65419;DHT22;52027;50.658;14.004;2022-08-19T06:46:37;27.78;53.55
65419;DHT22;52027;50.658;14.004;2022-08-19T06:49:03;27.85;53.30
65419;DHT22;52027;50.658;14.004;2022-08-19T06:51:28;27.85;53.26
65419;DHT22;52027;50.658;14.004;2022-08-19T06:53:56;27.78;53.21
65419;DHT22;52027;50.658;14.004;2022-08-19T06:56:28;27.78;53.21
65419;DHT22;52027;50.658;14.004;2022-08-19T06:59:21;27.72;53.37
65419;DHT22;52027;50.658;14.004;2022-08-19T07:01:50;27.73;53.54
65419;DHT22;52027;50.658;14.004;2022-08-19T07:04:19;27.70;53.60
65419;DHT22;52027;50.658;14.004;2022-08-19T07:06:46;27.70;53.55
65419;DHT22;52027;50.658;14.004;2022-08-19T07:09:15;27.70;53.82
65419;DHT22;52027;50.658;14.004;2022-08-19T07:11:45;27.70;53.66
65419;DHT22;52027;50.658;14.004;2022-08-19T07:14:10;27.69;53.72
65419;DHT22;52027;50.658;14.004;2022-08-19T07:16:36;27.63;53.72
65419;DHT22;52027;50.658;14.004;2022-08-19T07:19:01;27.59;53.85
65419;DHT22;52027;50.658;14.004;2022-08-19T07:21:28;27.62;53.75
65419;DHT22;52027;50.658;14.004;2022-08-19T07:23:55;27.54;53.86
65419;DHT22;52027;50.658;14.004;2022-08-19T07:26:27;27.52;53.85
65419;DHT22;52027;50.658;14.004;2022-08-19T07:28:53;27.49;54.02
65419;DHT22;52027;50.658;14.004;2022-08-19T07:31:21;27.48;53.93
65419;DHT22;52027;50.658;14.004;2022-08-19T07:33:49;27.45;54.02
65419;DHT22;52027;50.658;14.004;2022-08-19T07:36:17;27.49;54.00
65419;DHT22;52027;50.658;14.004;2022-08-19T07:38:45;27.49;54.11
65419;DHT22;52027;50.658;14.004;2022-08-19T07:41:14;27.49;54.10
65419;DHT22;52027;50.658;14.004;2022-08-19T07:43:41;27.48;53.99
65419;DHT22;52027;50.658;14.004;2022-08-19T07:46:08;27.46;54.24
65419;DHT22;52027;50.658;14.004;2022-08-19T07:48:34;27.42;54.27
65419;DHT22;52027;50.658;14.004;2022-08-19T07:51:01;27.45;54.33
65419;DHT22;52027;50.658;14.004;2022-08-19T07:53:29;27.44;54.43
65419;DHT22;52027;50.658;14.004;2022-08-19T07:55:55;27.45;54.33
65419;DHT22;52027;50.658;14.004;2022-08-19T07:58:23;27.45;54.26
65419;DHT22;52027;50.658;14.004;2022-08-19T08:00:50;27.45;54.33
65419;DHT22;52027;50.658;14.004;2022-08-19T08:03:21;27.48;54.35
65419;DHT22;52027;50.658;14.004;2022-08-19T08:06:06;27.48;54.36
65419;DHT22;52027;50.658;14.004;2022-08-19T08:08:52;27.54;53.95
65419;DHT22;52027;50.658;14.004;2022-08-19T08:11:42;27.54;53.76
65419;DHT22;52027;50.658;14.004;2022-08-19T08:14:10;27.52;53.71
65419;DHT22;52027;50.658;14.004;2022-08-19T08:16:36;27.52;53.62
65419;DHT22;52027;50.658;14.004;2022-08-19T08:19:04;27.52;53.68
65419;DHT22;52027;50.658;14.004;2022-08-19T08:21:31;27.56;53.77
65419;DHT22;52027;50.658;14.004;2022-08-19T08:23:57;27.58;53.91
65419;DHT22;52027;50.658;14.004;2022-08-19T08:26:23;27.55;53.82
65419;DHT22;52027;50.658;14.004;2022-08-19T08:28:48;27.56;53.95
65419;DHT22;52027;50.658;14.004;2022-08-19T08:31:14;27.61;53.83
65419;DHT22;52027;50.658;14.004;2022-08-19T08:33:39;27.59;53.81
65419;DHT22;52027;50.658;14.004;2022-08-19T08:36:08;27.61;53.82
65419;DHT22;52027;50.658;14.004;2022-08-19T08:38:33;27.61;53.87
65419;DHT22;52027;50.658;14.004;2022-08-19T08:41:07;27.62;53.77
65419;DHT22;52027;50.658;14.004;2022-08-19T08:43:37;27.63;53.76
65419;DHT22;52027;50.658;14.004;2022-08-19T08:46:14;27.62;53.73
65419;DHT22;52027;50.658;14.004;2022-08-19T08:51:33;27.65;53.68
65419;DHT22;52027;50.658;14.004;2022-08-19T08:53:59;27.65;53.57
65419;DHT22;52027;50.658;14.004;2022-08-19T08:56:25;27.65;53.45
65419;DHT22;52027;50.658;14.004;2022-08-19T09:01:18;27.63;53.28
65419;DHT22;52027;50.658;14.004;2022-08-19T09:03:44;27.63;53.13
65419;DHT22;52027;50.658;14.004;2022-08-19T09:06:54;27.62;53.04
65419;DHT22;52027;50.658;14.004;2022-08-19T09:09:41;27.62;53.06
65419;DHT22;52027;50.658;14.004;2022-08-19T09:15:10;27.65;53.15
65419;DHT22;52027;50.658;14.004;2022-08-19T09:17:37;27.69;53.10
65419;DHT22;52027;50.658;14.004;2022-08-19T09:22:40;27.74;52.65
65419;DHT22;52027;50.658;14.004;2022-08-19T09:25:07;27.72;52.66
65419;DHT22;52027;50.658;14.004;2022-08-19T09:27:36;27.74;52.78
65419;DHT22;52027;50.658;14.004;2022-08-19T09:30:03;27.78;52.68
65419;DHT22;52027;50.658;14.004;2022-08-19T09:32:30;27.82;52.52
65419;DHT22;52027;50.658;14.004;2022-08-19T09:34:56;27.85;52.34
65419;DHT22;52027;50.658;14.004;2022-08-19T09:37:24;27.88;52.32
65419;DHT22;52027;50.658;14.004;2022-08-19T09:39:49;27.89;52.15
65419;DHT22;52027;50.658;14.004;2022-08-19T09:42:14;27.86;52.24
65419;DHT22;52027;50.658;14.004;2022-08-19T09:44:40;27.86;52.19
65419;DHT22;52027;50.658;14.004;2022-08-19T09:47:07;27.88;52.12
65419;DHT22;52027;50.658;14.004;2022-08-19T09:49:33;27.90;52.29
65419;DHT22;52027;50.658;14.004;2022-08-19T09:51:58;27.93;52.31
65419;DHT22;52027;50.658;14.004;2022-08-19T09:54:24;27.93;52.31
65419;DHT22;52027;50.658;14.004;2022-08-19T09:56:49;27.86;52.39
65419;DHT22;52027;50.658;14.004;2022-08-19T09:59:15;27.83;52.42
65419;DHT22;52027;50.658;14.004;2022-08-19T10:01:41;27.88;52.27
65419;DHT22;52027;50.658;14.004;2022-08-19T10:04:06;27.88;52.22
65419;DHT22;52027;50.658;14.004;2022-08-19T10:06:35;27.82;52.21
65419;DHT22;52027;50.658;14.004;2022-08-19T10:09:04;27.86;52.09
65419;DHT22;52027;50.658;14.004;2022-08-19T10:11:32;27.88;52.01
65419;DHT22;52027;50.658;14.004;2022-08-19T10:13:57;27.88;52.20
65419;DHT22;52027;50.658;14.004;2022-08-19T10:16:25;27.94;51.99
65419;DHT22;52027;50.658;14.004;2022-08-19T10:18:53;27.94;51.96
65419;DHT22;52027;50.658;14.004;2022-08-19T10:21:27;27.89;52.16
65419;DHT22;52027;50.658;14.004;2022-08-19T10:23:55;27.90;52.16
65419;DHT22;52027;50.658;14.004;2022-08-19T10:26:25;27.99;52.15
65419;DHT22;52027;50.658;14.004;2022-08-19T10:28:51;28.00;52.18
65419;DHT22;52027;50.658;14.004;2022-08-19T10:31:19;28.09;51.90
65419;DHT22;52027;50.658;14.004;2022-08-19T10:33:49;28.11;51.96
65419;DHT22;52027;50.658;14.004;2022-08-19T10:36:19;28.16;51.84
65419;DHT22;52027;50.658;14.004;2022-08-19T10:38:46;28.20;51.67
65419;DHT22;52027;50.658;14.004;2022-08-19T10:41:15;28.25;51.69
65419;DHT22;52027;50.658;14.004;2022-08-19T10:43:41;28.22;51.81
65419;DHT22;52027;50.658;14.004;2022-08-19T10:46:09;28.25;51.91
65419;DHT22;52027;50.658;14.004;2022-08-19T10:48:35;28.24;51.93
65419;DHT22;52027;50.658;14.004;2022-08-19T10:51:00;28.28;51.90
65419;DHT22;52027;50.658;14.004;2022-08-19T10:53:44;28.30;51.78
65419;DHT22;52027;50.658;14.004;2022-08-19T10:56:11;28.28;51.76
65419;DHT22;52027;50.658;14.004;2022-08-19T10:58:56;28.33;51.61
65419;DHT22;52027;50.658;14.004;2022-08-19T11:01:23;28.34;51.60
65419;DHT22;52027;50.658;14.004;2022-08-19T11:03:49;28.37;51.55
65419;DHT22;52027;50.658;14.004;2022-08-19T11:06:15;28.37;51.28
65419;DHT22;52027;50.658;14.004;2022-08-19T11:08:40;28.37;51.10
65419;DHT22;52027;50.658;14.004;2022-08-19T11:11:07;28.40;51.00
65419;DHT22;52027;50.658;14.004;2022-08-19T11:13:37;28.38;51.07
65419;DHT22;52027;50.658;14.004;2022-08-19T11:16:07;28.41;51.03
65419;DHT22;52027;50.658;14.004;2022-08-19T11:18:38;28.40;50.97
65419;DHT22;52027;50.658;14.004;2022-08-19T11:23:38;28.41;51.09
65419;DHT22;52027;50.658;14.004;2022-08-19T11:26:04;28.41;51.27
65419;DHT22;52027;50.658;14.004;2022-08-19T11:28:29;28.41;51.33
65419;DHT22;52027;50.658;14.004;2022-08-19T11:30:55;28.41;51.24
65419;DHT22;52027;50.658;14.004;2022-08-19T11:33:20;28.40;51.30
65419;DHT22;52027;50.658;14.004;2022-08-19T11:35:45;28.44;51.20
65419;DHT22;52027;50.658;14.004;2022-08-19T11:38:11;28.44;51.08
65419;DHT22;52027;50.658;14.004;2022-08-19T11:40:37;28.44;51.08
65419;DHT22;52027;50.658;14.004;2022-08-19T11:43:03;28.47;51.07
65419;DHT22;52027;50.658;14.004;2022-08-19T11:45:30;28.45;50.99
65419;DHT22;52027;50.658;14.004;2022-08-19T11:47:56;28.44;51.07
65419;DHT22;52027;50.658;14.004;2022-08-19T11:50:23;28.47;50.98
65419;DHT22;52027;50.658;14.004;2022-08-19T11:52:49;28.47;50.83
65419;DHT22;52027;50.658;14.004;2022-08-19T11:55:15;28.45;50.97
65419;DHT22;52027;50.658;14.004;2022-08-19T11:57:40;28.41;51.12
65419;DHT22;52027;50.658;14.004;2022-08-19T12:00:07;28.48;51.01
65419;DHT22;52027;50.658;14.004;2022-08-19T12:02:33;28.51;50.92
65419;DHT22;52027;50.658;14.004;2022-08-19T12:04:58;28.52;50.83
65419;DHT22;52027;50.658;14.004;2022-08-19T12:07:25;28.54;50.82
65419;DHT22;52027;50.658;14.004;2022-08-19T12:09:51;28.54;50.79
65419;DHT22;52027;50.658;14.004;2022-08-19T12:12:16;28.58;50.55
65419;DHT22;52027;50.658;14.004;2022-08-19T12:14:41;28.59;50.48
65419;DHT22;52027;50.658;14.004;2022-08-19T12:17:06;28.58;50.49
65419;DHT22;52027;50.658;14.004;2022-08-19T12:19:36;28.59;50.53
65419;DHT22;52027;50.658;14.004;2022-08-19T12:22:01;28.62;50.47
65419;DHT22;52027;50.658;14.004;2022-08-19T12:24:31;28.62;50.30
65419;DHT22;52027;50.658;14.004;2022-08-19T12:26:57;28.62;50.27
65419;DHT22;52027;50.658;14.004;2022-08-19T12:29:24;28.65;50.21
65419;DHT22;52027;50.658;14.004;2022-08-19T12:31:54;28.65;50.26
65419;DHT22;52027;50.658;14.004;2022-08-19T12:34:25;28.66;50.29
65419;DHT22;52027;50.658;14.004;2022-08-19T12:36:51;28.68;50.27
65419;DHT22;52027;50.658;14.004;2022-08-19T12:39:17;28.69;50.14
65419;DHT22;52027;50.658;14.004;2022-08-19T12:41:42;28.71;50.17
65419;DHT22;52027;50.658;14.004;2022-08-19T12:46:40;28.74;50.14
65419;DHT22;52027;50.658;14.004;2022-08-19T12:49:05;28.75;50.10
65419;DHT22;52027;50.658;14.004;2022-08-19T12:51:30;28.76;50.00
65419;DHT22;52027;50.658;14.004;2022-08-19T12:53:56;28.82;49.91
65419;DHT22;52027;50.658;14.004;2022-08-19T12:56:22;28.79;49.89
65419;DHT22;52027;50.658;14.004;2022-08-19T12:58:47;28.78;49.89
65419;DHT22;52027;50.658;14.004;2022-08-19T13:01:14;28.80;49.92
65419;DHT22;52027;50.658;14.004;2022-08-19T13:03:41;28.83;49.87
65419;DHT22;52027;50.658;14.004;2022-08-19T13:06:08;28.83;49.79
65419;DHT22;52027;50.658;14.004;2022-08-19T13:08:34;28.86;49.71
65419;DHT22;52027;50.658;14.004;2022-08-19T13:11:14;28.88;49.76
65419;DHT22;52027;50.658;14.004;2022-08-19T13:13:42;28.91;49.68
65419;DHT22;52027;50.658;14.004;2022-08-19T13:16:09;28.95;49.68
65419;DHT22;52027;50.658;14.004;2022-08-19T13:18:36;28.98;49.66
65419;DHT22;52027;50.658;14.004;2022-08-19T13:21:07;29.00;49.61
65419;DHT22;52027;50.658;14.004;2022-08-19T13:23:34;29.07;49.38
65419;DHT22;52027;50.658;14.004;2022-08-19T13:26:03;29.12;49.09
65419;DHT22;52027;50.658;14.004;2022-08-19T13:28:29;29.10;48.82
65419;DHT22;52027;50.658;14.004;2022-08-19T13:31:20;29.10;48.45
65419;DHT22;52027;50.658;14.004;2022-08-19T13:34:04;29.04;48.19
65419;DHT22;52027;50.658;14.004;2022-08-19T13:36:34;29.02;48.27
65419;DHT22;52027;50.658;14.004;2022-08-19T13:38:59;29.00;48.40
65419;DHT22;52027;50.658;14.004;2022-08-19T13:41:25;29.03;48.29
65419;DHT22;52027;50.658;14.004;2022-08-19T13:43:52;29.03;48.33
65419;DHT22;52027;50.658;14.004;2022-08-19T13:46:17;29.03;48.53
65419;DHT22;52027;50.658;14.004;2022-08-19T13:48:43;29.06;48.38
65419;DHT22;52027;50.658;14.004;2022-08-19T13:51:09;29.09;48.28
65419;DHT22;52027;50.658;14.004;2022-08-19T13:53:36;29.09;48.18
65419;DHT22;52027;50.658;14.004;2022-08-19T13:56:07;29.12;48.15
65419;DHT22;52027;50.658;14.004;2022-08-19T13:58:33;29.12;48.17
65419;DHT22;52027;50.658;14.004;2022-08-19T14:00:58;29.14;48.10
65419;DHT22;52027;50.658;14.004;2022-08-19T14:03:25;29.16;48.13
65419;DHT22;52027;50.658;14.004;2022-08-19T14:05:50;29.17;48.05
65419;DHT22;52027;50.658;14.004;2022-08-19T14:08:16;29.17;48.04
65419;DHT22;52027;50.658;14.004;2022-08-19T14:10:42;29.20;48.00
65419;DHT22;52027;50.658;14.004;2022-08-19T14:13:10;29.20;48.00
65419;DHT22;52027;50.658;14.004;2022-08-19T14:15:35;29.20;47.96
65419;DHT22;52027;50.658;14.004;2022-08-19T14:18:02;29.22;47.95
65419;DHT22;52027;50.658;14.004;2022-08-19T14:20:28;29.24;47.90
65419;DHT22;52027;50.658;14.004;2022-08-19T14:22:54;29.22;47.99
65419;DHT22;52027;50.658;14.004;2022-08-19T14:25:22;29.23;47.95
65419;DHT22;52027;50.658;14.004;2022-08-19T14:27:48;29.22;47.93
65419;DHT22;52027;50.658;14.004;2022-08-19T14:30:17;29.23;47.84
65419;DHT22;52027;50.658;14.004;2022-08-19T14:32:43;29.24;47.92
65419;DHT22;52027;50.658;14.004;2022-08-19T14:35:10;29.23;47.92
65419;DHT22;52027;50.658;14.004;2022-08-19T14:37:37;29.23;47.88
65419;DHT22;52027;50.658;14.004;2022-08-19T14:40:03;29.24;47.94
65419;DHT22;52027;50.658;14.004;2022-08-19T14:42:29;29.22;47.93
65419;DHT22;52027;50.658;14.004;2022-08-19T14:44:58;29.22;47.95
65419;DHT22;52027;50.658;14.004;2022-08-19T14:47:24;29.22;47.86
65419;DHT22;52027;50.658;14.004;2022-08-19T14:49:50;29.24;47.88
65419;DHT22;52027;50.658;14.004;2022-08-19T14:52:15;29.22;47.84
65419;DHT22;52027;50.658;14.004;2022-08-19T14:54:41;29.26;47.92
65419;DHT22;52027;50.658;14.004;2022-08-19T14:57:06;29.27;47.84
65419;DHT22;52027;50.658;14.004;2022-08-19T14:59:32;29.24;47.83
65419;DHT22;52027;50.658;14.004;2022-08-19T15:01:59;29.23;47.91
65419;DHT22;52027;50.658;14.004;2022-08-19T15:04:24;29.24;47.95
65419;DHT22;52027;50.658;14.004;2022-08-19T15:06:50;29.26;47.96
65419;DHT22;52027;50.658;14.004;2022-08-19T15:09:15;29.24;47.87
65419;DHT22;52027;50.658;14.004;2022-08-19T15:11:42;29.27;47.87
65419;DHT22;52027;50.658;14.004;2022-08-19T15:14:08;29.30;47.99
65419;DHT22;52027;50.658;14.004;2022-08-19T15:16:35;29.29;47.87
65419;DHT22;52027;50.658;14.004;2022-08-19T15:19:00;29.33;47.83
65419;DHT22;52027;50.658;14.004;2022-08-19T15:21:27;29.34;47.84
65419;DHT22;52027;50.658;14.004;2022-08-19T15:23:54;29.35;47.89
65419;DHT22;52027;50.658;14.004;2022-08-19T15:26:20;29.38;47.77
65419;DHT22;52027;50.658;14.004;2022-08-19T15:28:46;29.40;47.76
65419;DHT22;52027;50.658;14.004;2022-08-19T15:31:12;29.38;47.74
65419;DHT22;52027;50.658;14.004;2022-08-19T15:33:41;29.40;47.64